Terminal Aerodrome Forecast
Issued by NWS Honolulu, HI

Home | Current Version | Previous Version | Text Only | Print | Product List | Glossary On
Versions: 1 2 3 4 5 6 7 8 9 10 11 12 13 14 15 16 17 18 19 20 21 22 23 24 25
000
FTPA31 PHFO 171120
TAFHNL
TAF
PHNL 171120Z 1712/1818 05014G22KT P6SM VCSH FEW025 SCT050
     FM171900 06022G30KT P6SM FEW025 SCT050
     FM180500 05014G22KT P6SM VCSH FEW025 SCT050=

USA.gov is the U.S. government's official web portal to all federal, state and local government web resources and services.